EW8380 Weather Reports


time (UTC)temp
F
wind
direction
speed
knots
gust
knots
rain 1hr
in
rain 24hr
in
rain mn
in
humidity
%
barometer
mb
20211026185349 53 226 4.3 14.8 0.00 0.14 0.07 83 1008.3
20211026184847 53 236 5.2 15.6 0.00 0.14 0.07 84 1008.3
20211026184349 53 186 5.2 15.6 0.00 0.14 0.07 83 1008.1
20211026183848 53 218 4.3 10.4 0.00 0.14 0.07 83 1008.0
20211026183347 53 177 2.6 9.6 0.00 0.14 0.07 83 1008.0
20211026182847 53 212 2.6 13.0 0.00 0.14 0.07 83 1007.9
20211026182349 53 169 5.2 18.2 0.00 0.14 0.07 83 1008.0
20211026181848 52 235 6.1 18.2 0.00 0.14 0.07 83 1008.0
20211026181348 52 165 4.3 16.5 0.00 0.14 0.07 83 1008.1
20211026180841 52 184 3.5 15.6 0.00 0.14 0.07 84 1008.0
20211026180337 52 166 3.5 10.4 0.00 0.14 0.07 84 1007.9
20211026175838 52 127 5.2 16.5 0.00 0.14 0.07 85 1007.9
20211026175337 51 200 4.3 16.5 0.00 0.14 0.07 85 1007.6
20211026174838 51 193 2.6 10.4 0.00 0.14 0.07 86 1007.7
20211026174337 51 208 2.6 11.3 0.00 0.14 0.07 86 1007.8
20211026173837 51 230 3.5 11.3 0.00 0.14 0.07 86 1007.8
20211026173337 51 214 3.5 12.2 0.00 0.14 0.07 86 1007.7
20211026172837 51 132 3.5 12.2 0.00 0.14 0.07 87 1007.8
20211026172338 50 222 2.6 10.4 0.00 0.14 0.07 88 1007.7
20211026171838 50 184 1.7 7.8 0.00 0.14 0.07 89 1007.7
20211026171337 50 192 1.7 7.0 0.00 0.14 0.07 89 1007.8
20211026170837 50 158 1.7 7.0 0.00 0.14 0.07 89 1007.8
20211026170339 50 169 0.9 5.2 0.00 0.14 0.07 89 1007.8
20211026165839 50 179 1.7 7.8 0.00 0.14 0.07 88 1008.0
20211026165331 50 149 1.7 10.4 0.00 0.14 0.07 87 1008.0
20211026164827 50 202 2.6 10.4 0.00 0.14 0.07 85 1008.0
20211026164327 50 197 1.7 11.3 0.00 0.14 0.07 84 1007.9
20211026163828 50 165 1.7 11.3 0.00 0.14 0.07 83 1007.9
20211026163328 50 117 3.5 12.2 0.00 0.14 0.07 83 1007.8
20211026162827 50 150 2.6 12.2 0.00 0.14 0.07 83 1007.9
20211026162328 50 166 2.6 8.7 0.00 0.14 0.07 84 1007.9
20211026161828 50 231 2.6 9.6 0.00 0.14 0.07 84 1008.0
20211026161328 50 183 2.6 9.6 0.00 0.14 0.07 84 1008.0
20211026160828 50 168 2.6 8.7 0.00 0.14 0.07 85 1008.1
20211026160327 50 152 2.6 10.4 0.00 0.14 0.07 85 1008.0
20211026155827 49 128 1.7 10.4 0.00 0.14 0.07 85 1008.0
20211026155328 49 226 1.7 7.8 0.00 0.14 0.07 86 1008.0
20211026154829 49 160 2.6 7.8 0.00 0.14 0.07 85 1008.0
20211026154330 49 198 2.6 9.6 0.01 0.14 0.07 86 1007.9
20211026153822 49 156 2.6 9.6 0.01 0.14 0.07 86 1007.9
20211026153316 49 150 2.6 9.6 0.01 0.14 0.07 86 1007.8
20211026152813 49 155 2.6 8.7 0.01 0.14 0.07 87 1007.7
20211026152311 48 139 2.6 8.7 0.01 0.14 0.07 87 1007.8
20211026151810 48 86 3.5 13.0 0.01 0.14 0.07 87 1007.9
20211026151310 48 148 4.3 13.0 0.01 0.14 0.07 87 1007.9
20211026150810 48 239 4.3 11.3 0.01 0.14 0.07 88 1007.9
20211026150310 48 158 4.3 11.3 0.01 0.14 0.07 88 1007.9
20211026145807 48 181 3.5 10.4 0.01 0.14 0.07 89 1007.9
20211026145307 48 187 2.6 8.7 0.01 0.14 0.07 89 1007.9
20211026144805 48 117 3.5 10.4 0.01 0.14 0.07 89 1007.9
20211026144305 48 174 3.5 10.4 0.00 0.13 0.06 89 1008.2
20211026143805 48 142 3.5 9.6 0.00 0.13 0.06 89 1008.1
20211026143306 48 160 3.5 9.6 0.00 0.13 0.06 90 1008.1
20211026142805 48 187 3.5 11.3 0.00 0.13 0.06 90 1008.2
20211026142307 48 172 4.3 11.3 0.01 0.13 0.06 91 1008.1
20211026141806 48 140 4.3 10.4 0.01 0.13 0.06 91 1008.2
20211026141301 48 136 4.3 13.0 0.01 0.13 0.06 92 1008.2
20211026140801 48 232 4.3 13.9 0.01 0.13 0.06 92 1008.2
20211026140304 48 214 3.5 13.9 0.01 0.13 0.06 92 1008.3
20211026135801 48 156 3.5 11.3 0.01 0.13 0.06 93 1008.4
20211026135301 48 117 4.3 11.3 0.01 0.13 0.06 93 1008.4
20211026134800 48 224 3.5 11.3 0.01 0.13 0.06 93 1008.5
20211026134259 48 177 3.5 9.6 0.01 0.13 0.06 93 1008.5
20211026133757 48 172 3.5 9.6 0.01 0.13 0.06 93 1008.7
20211026133256 48 172 2.6 7.8 0.01 0.13 0.06 93 1008.6
20211026132758 48 186 3.5 11.3 0.01 0.13 0.06 93 1008.7
20211026132256 48 184 3.5 11.3 0.00 0.12 0.05 92 1008.7
20211026131755 48 216 3.5 10.4 0.00 0.12 0.05 92 1008.7
20211026131255 48 186 4.3 10.4 0.00 0.12 0.05 91 1008.7
20211026130755 48 174 4.3 11.3 0.00 0.12 0.05 91 1008.8
20211026130256 48 184 4.3 12.2 0.00 0.12 0.05 90 1008.9
20211026125749 48 191 5.2 12.2 0.00 0.12 0.05 90 1008.9
20211026125249 48 218 4.3 12.2 0.00 0.12 0.05 90 1009.0
20211026124749 48 164 3.5 11.3 0.00 0.12 0.05 90 1008.9
20211026124250 48 191 2.6 11.3 0.00 0.12 0.05 91 1009.0
20211026123749 48 180 2.6 6.1 0.00 0.12 0.05 92 1009.0
20211026123250 48 184 1.7 6.1 0.00 0.12 0.05 92 1008.9
20211026122750 48 172 1.7 5.2 0.00 0.12 0.05 92 1008.9
20211026122247 48 179 1.7 6.1 0.00 0.12 0.05 93 1008.9
20211026121750 48 195 1.7 7.0 0.00 0.12 0.05 93 1008.9
20211026121245 48 155 1.7 7.8 0.00 0.12 0.05 93 1009.0
20211026120745 48 146 1.7 7.8 0.00 0.12 0.05 94 1008.9
20211026120246 48 149 1.7 6.1 0.00 0.12 0.05 94 1008.9
20211026115745 48 169 1.7 7.0 0.00 0.12 0.05 94 1008.9
20211026115245 48 194 1.7 7.0 0.00 0.12 0.05 94 1008.9
20211026114746 48 202 0.9 5.2 0.00 0.12 0.05 94 1008.9
20211026114243 48 163 1.7 7.0 0.00 0.12 0.05 94 1008.9
20211026113744 48 174 1.7 7.0 0.00 0.12 0.05 94 1008.9
20211026113244 48 226 1.7 7.8 0.00 0.12 0.05 94 1009.0
20211026112737 48 172 2.6 7.8 0.00 0.12 0.05 94 1009.0
20211026112237 48 215 2.6 7.8 0.00 0.12 0.05 95 1009.0
20211026111737 48 198 2.6 8.7 0.00 0.12 0.05 95 1009.0
20211026111238 48 191 2.6 8.7 0.00 0.12 0.05 95 1009.0
20211026110737 48 188 2.6 8.7 0.00 0.12 0.05 95 1008.8
20211026110237 48 243 1.7 8.7 0.00 0.12 0.05 95 1008.7
20211026105738 48 184 2.6 9.6 0.00 0.12 0.05 95 1008.8
20211026105239 48 243 2.6 9.6 0.00 0.12 0.05 95 1008.8
20211026104736 48 183 1.7 7.8 0.00 0.12 0.05 95 1008.8
20211026104238 48 174 1.7 6.1 0.00 0.12 0.05 95 1008.9
20211026103735 48 169 2.6 8.7 0.00 0.12 0.05 96 1008.9
20211026103235 48 187 2.6 8.7 0.00 0.12 0.05 96 1008.9
20211026102735 48 214 2.6 8.7 0.00 0.12 0.05 96 1008.8
20211026102236 48 195 1.7 7.8 0.00 0.12 0.05 96 1008.9
20211026101737 48 226 1.7 7.8 0.00 0.12 0.05 96 1008.8
20211026101230 48 172 2.6 7.8 0.00 0.12 0.05 96 1008.7
20211026100722 48 206 1.7 7.8 0.00 0.12 0.05 96 1008.8
20211026100216 47 210 1.7 7.0 0.00 0.12 0.05 96 1008.7
20211026095709 47 226 1.7 11.3 0.00 0.12 0.05 96 1008.6
20211026095205 47 235 2.6 11.3 0.00 0.12 0.05 96 1008.6
20211026094658 47 219 2.6 8.7 0.00 0.12 0.05 96 1008.6
20211026094152 47 170 2.6 8.7 0.00 0.12 0.05 97 1008.7
20211026093646 47 162 2.6 8.7 0.00 0.12 0.05 97 1008.6
20211026093139 47 238 2.6 11.3 0.00 0.12 0.05 97 1008.6
20211026092634 47 138 3.5 11.3 0.00 0.12 0.05 97 1008.5
20211026092127 47 194 3.5 9.6 0.00 0.12 0.05 97 1008.4
20211026091621 47 259 3.5 10.4 0.00 0.12 0.05 97 1008.3
20211026091116 47 221 3.5 10.4 0.00 0.12 0.05 97 1008.3
20211026090610 47 252 3.5 8.7 0.01 0.12 0.05 97 1008.2
20211026090104 47 183 3.5 10.4 0.01 0.12 0.05 97 1008.2
20211026085558 47 166 3.5 10.4 0.02 0.12 0.05 97 1008.3
20211026085052 47 229 2.6 8.7 0.02 0.12 0.05 97 1008.3
20211026084546 47 169 3.5 8.7 0.03 0.12 0.05 97 1008.3
20211026084040 47 154 4.3 13.9 0.03 0.12 0.05 96 1008.2
20211026083534 47 250 3.5 13.9 0.04 0.12 0.05 96 1008.2
20211026083028 47 180 2.6 12.2 0.04 0.12 0.05 96 1008.2
20211026082522 47 198 3.5 9.6 0.05 0.12 0.05 96 1008.2
20211026082016 47 144 3.5 12.2 0.05 0.12 0.05 96 1008.0
20211026081510 47 163 1.7 7.8 0.05 0.12 0.05 96 1008.0
20211026081005 47 212 2.6 11.3 0.04 0.11 0.04 96 1007.9
20211026080458 48 240 4.3 11.3 0.04 0.11 0.04 95 1007.9
20211026075958 48 183 4.3 17.4 0.04 0.11 0.04 95 1007.9
20211026075458 48 181 4.3 17.4 0.03 0.10 0.03 95 1007.9
20211026074959 48 172 5.2 13.0 0.03 0.10 0.03 94 1007.9
20211026074458 48 187 3.5 13.0 0.02 0.09 0.02 94 1007.8
20211026073958 48 164 1.7 9.6 0.02 0.09 0.02 93 1007.9
20211026073458 48 260 1.7 7.0 0.01 0.08 0.01 92 1007.8
20211026072959 48 167 0.9 6.1 0.01 0.08 0.01 92 1007.7
20211026072458 48 184 0.0 4.3 0.00 0.07 0.00 92 1007.6
20211026071959 48 167 0.0 4.3 0.00 0.07 0.00 92 1007.6
20211026071500 49 174 0.0 6.1 0.00 0.07 0.00 92 1007.6
20211026070957 49 149 0.9 6.1 0.00 0.07 0.00 92 1007.7
20211026070458 49 160 0.9 7.8 0.00 0.07 0.00 92 1007.7
20211026065957 49 201 0.9 7.8 0.00 0.07 0.07 92 1007.7
20211026065456 49 166 0.9 5.2 0.00 0.07 0.07 92 1007.6
20211026064957 48 233 0.9 3.5 0.00 0.07 0.07 92 1007.7
20211026064452 49 183 0.9 6.1 0.00 0.07 0.07 92 1007.6
20211026063953 48 172 1.7 6.1 0.00 0.07 0.07 92 1007.6
20211026063452 48 181 1.7 6.1 0.00 0.07 0.07 92 1007.7
20211026062952 48 195 2.6 8.7 0.00 0.07 0.07 92 1007.7
20211026062452 48 195 2.6 8.7 0.00 0.07 0.07 93 1007.6
20211026061952 48 178 1.7 7.0 0.00 0.07 0.07 93 1007.6
20211026061452 48 195 1.7 7.0 0.00 0.07 0.07 93 1007.6
20211026060951 48 162 1.7 7.8 0.00 0.07 0.07 93 1007.7
20211026060453 48 160 1.7 7.8 0.00 0.07 0.07 93 1007.7
20211026055948 48 177 1.7 9.6 0.00 0.07 0.07 93 1007.6
20211026055447 48 198 1.7 9.6 0.00 0.07 0.07 93 1007.6
20211026054948 48 212 2.6 7.0 0.00 0.07 0.07 93 1007.7
20211026054449 48 232 1.7 7.0 0.00 0.07 0.07 93 1007.7
20211026053948 48 236 1.7 7.0 0.00 0.07 0.07 93 1007.7
20211026053450 48 249 1.7 8.7 0.00 0.07 0.07 93 1007.6
20211026052949 48 230 2.6 8.7 0.00 0.07 0.07 93 1007.5
20211026052450 48 187 3.5 9.6 0.00 0.07 0.07 92 1007.5
20211026051951 48 202 3.5 11.3 0.00 0.07 0.07 92 1007.6
20211026051445 49 163 4.3 13.9 0.00 0.07 0.07 91 1007.6
20211026050945 49 77 5.2 14.8 0.00 0.07 0.07 91 1007.5
20211026050444 49 145 4.3 14.8 0.00 0.07 0.07 91 1007.5
20211026045943 49 163 3.5 13.0 0.00 0.07 0.07 90 1007.5
20211026045443 49 174 4.3 13.0 0.00 0.07 0.07 90 1007.5
20211026044945 49 177 4.3 13.9 0.00 0.07 0.07 90 1007.6
20211026044444 49 240 2.6 13.9 0.00 0.07 0.07 89 1007.5
20211026043945 49 258 2.6 10.4 0.00 0.07 0.07 90 1007.4
20211026043445 49 81 3.5 12.2 0.00 0.07 0.07 90 1007.3
20211026042939 49 184 3.5 12.2 0.00 0.07 0.07 90 1007.3
20211026042439 49 201 2.6 12.2 0.00 0.07 0.07 90 1007.2
20211026041940 48 233 2.6 12.2 0.00 0.07 0.07 90 1007.2
20211026041440 49 220 2.6 10.4 0.00 0.07 0.07 90 1007.0
20211026040940 48 187 2.6 10.4 0.00 0.07 0.07 91 1006.9
20211026040441 48 166 2.6 10.4 0.00 0.07 0.07 91 1006.8
20211026035941 48 245 2.6 10.4 0.00 0.07 0.07 91 1006.7
20211026035439 48 236 2.6 11.3 0.00 0.07 0.07 91 1006.6
20211026034941 48 236 2.6 11.3 0.00 0.07 0.07 91 1006.5
20211026034437 48 212 3.5 11.3 0.00 0.07 0.07 91 1006.4
20211026033935 48 211 4.3 11.3 0.00 0.07 0.07 91 1006.3
20211026033435 48 278 4.3 11.3 0.00 0.07 0.07 91 1006.3
20211026032936 48 186 3.5 13.9 0.00 0.07 0.07 91 1006.2
20211026032437 48 205 2.6 13.9 0.00 0.07 0.07 91 1006.1
20211026031935 48 207 2.6 10.4 0.00 0.07 0.07 91 1006.0
20211026031435 48 165 2.6 8.7 0.00 0.07 0.07 92 1006.0
20211026030935 48 230 2.6 8.7 0.00 0.07 0.07 92 1005.9
20211026030436 48 236 3.5 11.3 0.00 0.07 0.07 92 1005.8
20211026025932 48 222 3.5 11.3 0.00 0.07 0.07 92 1005.8
20211026025431 48 269 4.3 10.4 0.00 0.07 0.07 92 1005.7
20211026024933 48 170 5.2 13.9 0.00 0.07 0.07 92 1005.6
20211026024431 48 173 4.3 13.9 0.00 0.07 0.07 92 1005.6
20211026023931 48 256 2.6 13.9 0.00 0.07 0.07 93 1005.5
20211026023432 48 221 2.6 10.4 0.00 0.07 0.07 93 1005.4
20211026022932 48 176 3.5 12.2 0.00 0.07 0.07 93 1005.3
20211026022431 48 200 3.5 12.2 0.00 0.07 0.07 93 1005.3
20211026021933 48 246 3.5 9.6 0.01 0.07 0.07 94 1005.3
20211026021427 48 222 3.5 10.4 0.01 0.07 0.07 94 1005.2
20211026020928 48 242 3.5 11.3 0.01 0.07 0.07 94 1005.2
20211026020429 48 264 3.5 13.0 0.01 0.07 0.07 94 1005.1
20211026015928 48 224 4.3 13.0 0.01 0.07 0.07 94 1005.0
20211026015427 48 224 4.3 13.0 0.01 0.07 0.07 94 1005.0
20211026014928 48 242 4.3 13.9 0.01 0.07 0.07 94 1004.9
20211026014427 48 217 4.3 13.9 0.01 0.07 0.07 94 1004.8
20211026013929 48 221 5.2 14.8 0.01 0.07 0.07 94 1004.8
20211026013430 48 193 5.2 14.8 0.01 0.07 0.07 94 1004.8
20211026012924 49 204 3.5 13.9 0.01 0.07 0.07 94 1004.7
20211026012424 49 160 3.5 13.9 0.01 0.07 0.07 94 1004.5
20211026011924 49 215 3.5 15.6 0.00 0.06 0.06 93 1004.6
20211026011423 49 148 3.5 15.6 0.00 0.06 0.06 93 1004.6
20211026010924 49 162 4.3 10.4 0.00 0.06 0.06 94 1004.6
20211026010423 49 203 4.3 12.2 0.00 0.06 0.06 94 1004.5
20211026005923 49 266 3.5 12.2 0.00 0.06 0.06 94 1004.4
20211026005425 49 205 3.5 11.3 0.00 0.06 0.06 95 1004.3
20211026004926 49 180 4.3 13.0 0.00 0.06 0.06 95 1004.3
20211026004419 49 182 3.5 13.0 0.00 0.06 0.06 95 1004.1
20211026003920 49 201 3.5 8.7 0.00 0.06 0.06 95 1004.0
20211026003421 49 210 3.5 10.4 0.00 0.06 0.06 95 1004.0
20211026002919 49 158 3.5 10.4 0.00 0.06 0.06 95 1003.9
20211026002421 49 210 4.3 11.3 0.00 0.06 0.06 95 1003.8
20211026001921 49 188 4.3 17.4 0.00 0.06 0.06 95 1003.6
20211026001420 49 224 4.3 17.4 0.00 0.06 0.06 95 1003.6
20211026000919 49 104 4.3 13.9 0.01 0.06 0.06 95 1003.5
20211026000420 49 293 4.3 13.9 0.01 0.06 0.06 95 1003.5
20211025235916 49 204 4.3 15.6 0.01 0.06 0.06 95 1003.5
20211025235416 49 236 4.3 15.6 0.02 0.06 0.06 95 1003.4
20211025234918 49 160 3.5 14.8 0.02 0.06 0.06 95 1003.4
20211025234416 49 179 3.5 14.8 0.02 0.06 0.06 95 1003.3
20211025233917 49 186 4.3 14.8 0.02 0.06 0.06 94 1003.2
20211025233417 48 264 4.3 14.8 0.02 0.06 0.06 94 1003.2
20211025232915 49 228 5.2 15.6 0.02 0.06 0.06 94 1003.0
20211025232416 49 240 5.2 15.6 0.02 0.06 0.06 94 1003.0
20211025231918 49 190 6.1 15.6 0.02 0.06 0.06 93 1003.0
20211025231412 49 224 6.1 17.4 0.02 0.06 0.06 93 1002.9
20211025230911 49 204 7.8 20.0 0.01 0.05 0.05 92 1002.9
20211025230411 49 186 7.8 20.0 0.01 0.05 0.05 91 1002.9
20211025225911 50 152 7.8 16.5 0.01 0.05 0.05 90 1002.7
20211025225413 50 160 8.7 22.6 0.00 0.04 0.04 88 1002.6
20211025224913 50 226 7.0 22.6 0.00 0.04 0.04 87 1002.5
20211025224411 50 226 7.0 18.2 0.00 0.04 0.04 87 1002.5
20211025223912 51 191 7.0 18.2 0.00 0.04 0.04 86 1002.3
20211025223413 51 256 6.1 17.4 0.00 0.04 0.04 85 1002.2
20211025222913 51 125 7.8 20.9 0.00 0.04 0.04 85 1002.1
20211025222413 51 260 8.7 23.5 0.00 0.04 0.04 84 1002.0
20211025221911 51 165 8.7 23.5 0.00 0.04 0.04 82 1002.0
20211025221413 51 217 7.0 23.5 0.01 0.04 0.04 82 1001.9
20211025220911 51 219 6.1 21.7 0.01 0.04 0.04 82 1001.7
20211025220411 51 186 6.1 15.6 0.02 0.04 0.04 82 1001.8
20211025215914 51 150 5.2 15.6 0.02 0.04 0.04 83 1001.7
20211025215419 50 148 7.0 19.1 0.02 0.04 0.04 83 1001.4
20211025214913 50 232 7.0 19.1 0.02 0.04 0.04 84 1001.4
20211025214413 50 172 5.2 20.0 0.02 0.04 0.04 85 1001.3
20211025213912 50 200 4.3 20.0 0.03 0.04 0.04 85 1001.2
20211025213412 50 194 3.5 15.6 0.03 0.04 0.04 86 1001.1
20211025212913 50 193 2.6 14.8 0.03 0.04 0.04 86 1001.0
20211025212411 50 222 4.3 13.9 0.04 0.04 0.04 86 1000.9
20211025211911 50 174 6.1 17.4 0.04 0.04 0.04 84 1001.0
20211025211412 50 149 7.0 17.4 0.03 0.03 0.03 83 1000.9
20211025210914 50 214 4.3 17.4 0.03 0.03 0.03 83 1000.8
20211025210412 50 231 1.7 17.4 0.02 0.02 0.02 86 1000.8
20211025205912 50 210 0.9 7.8 0.02 0.04 0.02 86 1000.7
20211025205405 50 160 0.9 7.0 0.02 0.05 0.02 86 1000.7
20211025204902 50 211 1.7 14.8 0.02 0.07 0.02 85 1000.6
20211025204402 50 210 2.6 14.8 0.02 0.08 0.02 83 1000.6
20211025203901 50 163 4.3 16.5 0.01 0.07 0.02 81 1000.5
20211025203402 51 150 2.6 16.5 0.01 0.07 0.01 78 1000.5
20211025202901 52 218 2.6 13.0 0.01 0.07 0.01 76 1000.5
20211025202401 53 165 4.3 19.1 0.00 0.06 0.00 74 1000.4
20211025201901 53 225 4.3 19.1 0.00 0.06 0.00 70 1000.3
20211025201401 54 226 4.3 13.9 0.00 0.06 0.00 69 1000.2
20211025200903 54 174 5.2 13.9 0.00 0.06 0.00 68 1000.1
20211025200403 54 160 5.2 16.5 0.00 0.06 0.00 68 1000.0
20211025195901 54 146 4.3 16.5 0.00 0.06 0.00 68 999.9
20211025195401 54 184 5.2 18.2 0.00 0.06 0.00 66 999.9
20211025194905 54 198 6.1 21.7 0.00 0.06 0.00 65 999.9
20211025194403 54 174 7.8 21.7 0.00 0.06 0.00 64 999.8
20211025193857 54 203 7.8 17.4 0.00 0.06 0.00 64 999.8
20211025193353 54 248 8.7 21.7 0.00 0.06 0.00 64 999.6
20211025192853 54 218 7.8 22.6 0.00 0.06 0.00 63 999.6
20211025192353 54 229 6.1 22.6 0.00 0.06 0.00 63 999.7
20211025191851 54 225 7.0 17.4 0.00 0.06 0.00 63 999.6
20211025191352 54 165 5.2 17.4 0.00 0.06 0.00 63 999.4
20211025190852 54 172 5.2 15.6 0.00 0.06 0.00 63 999.5
20211025190351 54 230 7.0 17.4 0.00 0.06 0.00 63 999.4
20211025185851 54 214 8.7 21.7 0.00 0.06 0.00 63 999.3